Time;durP1;ratioP1;P1;durP2;ratioP2;P2;SDS_P1;SDS_P2;PMS_P1;PMS_P2;Temp;Humidity;BMP_temperature;BMP_pressure;BME280_temperature;BME280_humidity;BME280_pressure;Samples;Min_cycle;Max_cycle;Signal;HPM_P1;HPM_P2
2021/12/09 00:01:21;;;;;;;18.85;14.15;;;;;;;;;;5001506;28;20692;-61
2021/12/09 00:03:49;;;;;;;19.17;13.93;;;;;;;;;;4998331;28;20234;-63
2021/12/09 00:06:21;;;;;;;20.83;15.77;;;;;;;;;;4994207;28;20208;-62
2021/12/09 00:08:49;;;;;;;21.30;15.77;;;;;;;;;;4994346;28;20191;-62
2021/12/09 00:11:18;;;;;;;21.67;16.98;;;;;;;;;;4994194;28;20227;-62
2021/12/09 00:13:45;;;;;;;22.77;15.55;;;;;;;;;;4994128;28;20227;-62
2021/12/09 00:16:13;;;;;;;20.27;15.27;;;;;;;;;;4994024;28;20200;-63
2021/12/09 00:18:40;;;;;;;23.35;16.42;;;;;;;;;;4994553;28;20208;-62
2021/12/09 00:21:08;;;;;;;23.13;17.08;;;;;;;;;;4994169;28;20230;-62
2021/12/09 00:23:35;;;;;;;25.08;17.73;;;;;;;;;;4994191;28;20216;-62
2021/12/09 00:26:02;;;;;;;26.20;18.05;;;;;;;;;;4997787;28;20206;-62
2021/12/09 00:28:31;;;;;;;22.52;17.38;;;;;;;;;;4998260;28;20226;-62
2021/12/09 00:30:58;;;;;;;23.60;17.63;;;;;;;;;;4997886;28;20227;-62
2021/12/09 00:33:25;;;;;;;26.25;17.83;;;;;;;;;;4997628;28;20243;-61
2021/12/09 00:35:56;;;;;;;28.23;18.05;;;;;;;;;;4997768;28;20706;-62
2021/12/09 00:38:34;;;;;;;26.27;18.55;;;;;;;;;;4997758;28;20196;-62
2021/12/09 00:41:01;;;;;;;26.88;18.77;;;;;;;;;;4997864;28;20234;-62
2021/12/09 00:43:30;;;;;;;27.15;18.85;;;;;;;;;;4997613;28;20207;-62
2021/12/09 00:45:57;;;;;;;32.25;22.00;;;;;;;;;;4997802;28;20207;-62
2021/12/09 00:48:25;;;;;;;27.50;19.92;;;;;;;;;;4997540;28;20204;-61
2021/12/09 00:50:52;;;;;;;29.58;19.80;;;;;;;;;;4997651;28;20223;-66
2021/12/09 00:53:20;;;;;;;33.38;21.83;;;;;;;;;;4997514;28;20223;-61
2021/12/09 00:55:47;;;;;;;29.10;20.50;;;;;;;;;;4997915;28;20234;-61
2021/12/09 00:58:15;;;;;;;34.25;20.88;;;;;;;;;;5003562;28;20203;-61
2021/12/09 01:00:43;;;;;;;31.83;21.92;;;;;;;;;;5010128;28;20188;-61
2021/12/09 01:03:11;;;;;;;34.22;22.15;;;;;;;;;;5015953;28;20214;-62
2021/12/09 01:05:38;;;;;;;33.40;23.90;;;;;;;;;;5017236;28;20221;-62
2021/12/09 01:08:06;;;;;;;36.13;23.95;;;;;;;;;;5013135;28;20223;-62
2021/12/09 01:10:33;;;;;;;39.25;24.85;;;;;;;;;;5009826;28;20203;-61
2021/12/09 01:13:01;;;;;;;38.95;24.70;;;;;;;;;;5010884;28;20215;-62
2021/12/09 01:15:28;;;;;;;47.33;26.30;;;;;;;;;;5009018;28;20255;-61
2021/12/09 01:17:57;;;;;;;37.58;23.88;;;;;;;;;;5002992;28;20295;-62
2021/12/09 01:20:25;;;;;;;38.83;24.63;;;;;;;;;;5001095;28;20335;-61
2021/12/09 01:22:53;;;;;;;43.97;25.70;;;;;;;;;;4997613;28;20219;-60
2021/12/09 01:25:21;;;;;;;37.72;24.60;;;;;;;;;;4997403;28;20295;-61
2021/12/09 01:27:51;;;;;;;47.58;27.30;;;;;;;;;;4997280;28;20226;-62
2021/12/09 01:30:19;;;;;;;39.53;25.85;;;;;;;;;;4996879;28;20254;-62
2021/12/09 01:32:51;;;;;;;41.72;25.80;;;;;;;;;;4996725;28;20227;-61
2021/12/09 01:35:21;;;;;;;43.75;26.17;;;;;;;;;;5006662;28;20267;-61
2021/12/09 01:37:53;;;;;;;38.92;26.52;;;;;;;;;;5007502;28;20211;-62
2021/12/09 01:40:20;;;;;;;43.10;26.60;;;;;;;;;;4997500;28;20196;-62
2021/12/09 01:42:48;;;;;;;42.92;25.60;;;;;;;;;;4997299;28;20235;-62
2021/12/09 01:45:16;;;;;;;40.83;26.10;;;;;;;;;;4996865;28;20196;-61
2021/12/09 01:47:43;;;;;;;45.15;26.70;;;;;;;;;;4996919;28;20211;-62
2021/12/09 01:50:11;;;;;;;46.88;27.33;;;;;;;;;;4997779;28;20601;-61
2021/12/09 01:52:40;;;;;;;43.63;27.15;;;;;;;;;;4996534;28;20231;-62
2021/12/09 01:55:09;;;;;;;46.20;27.90;;;;;;;;;;4996280;28;20665;-62
2021/12/09 01:57:36;;;;;;;41.33;25.60;;;;;;;;;;4996939;28;20215;-62
2021/12/09 02:00:05;;;;;;;47.13;29.50;;;;;;;;;;4997121;28;20199;-61
2021/12/09 02:02:32;;;;;;;44.22;27.90;;;;;;;;;;4997097;28;20232;-60
2021/12/09 02:04:59;;;;;;;46.92;27.90;;;;;;;;;;4996616;28;20583;-61
2021/12/09 02:07:27;;;;;;;52.97;28.23;;;;;;;;;;4997213;28;20199;-61
2021/12/09 02:09:55;;;;;;;48.33;28.58;;;;;;;;;;4996854;28;20200;-62
2021/12/09 02:12:23;;;;;;;48.95;27.88;;;;;;;;;;4997375;28;20224;-61
2021/12/09 02:14:52;;;;;;;51.97;31.45;;;;;;;;;;4996998;28;20220;-61
2021/12/09 02:17:20;;;;;;;46.20;28.42;;;;;;;;;;4996885;28;20214;-61
2021/12/09 02:19:48;;;;;;;56.42;30.05;;;;;;;;;;4997353;28;20210;-60
2021/12/09 02:22:17;;;;;;;56.75;30.35;;;;;;;;;;4996693;28;20326;-61
2021/12/09 02:24:44;;;;;;;49.67;29.75;;;;;;;;;;4996529;28;20204;-62
2021/12/09 02:27:12;;;;;;;52.58;30.25;;;;;;;;;;4996968;28;20579;-62
2021/12/09 02:29:41;;;;;;;52.30;32.53;;;;;;;;;;4996130;28;20210;-62
2021/12/09 02:32:09;;;;;;;48.55;29.40;;;;;;;;;;4995595;28;20223;-61
2021/12/09 02:34:36;;;;;;;53.53;29.10;;;;;;;;;;4995723;28;20250;-61
2021/12/09 02:37:04;;;;;;;51.97;29.52;;;;;;;;;;4995299;28;20203;-62
2021/12/09 02:39:33;;;;;;;49.17;28.52;;;;;;;;;;4995523;28;20266;-62
2021/12/09 02:42:00;;;;;;;56.17;29.80;;;;;;;;;;4995380;28;20227;-62
2021/12/09 02:44:27;;;;;;;57.08;31.80;;;;;;;;;;4995475;28;20246;-62
2021/12/09 02:46:56;;;;;;;54.50;31.05;;;;;;;;;;4995023;28;20203;-62
2021/12/09 02:49:26;;;;;;;63.22;30.08;;;;;;;;;;4994727;28;20231;-62
2021/12/09 02:51:54;;;;;;;66.30;32.55;;;;;;;;;;4995425;28;20301;-62
2021/12/09 02:54:22;;;;;;;61.13;31.80;;;;;;;;;;4994913;28;20224;-61
2021/12/09 02:56:52;;;;;;;55.28;32.00;;;;;;;;;;4994856;28;20211;-62
2021/12/09 02:59:20;;;;;;;56.03;32.50;;;;;;;;;;4995300;28;20184;-61
2021/12/09 03:01:57;;;;;;;53.33;30.40;;;;;;;;;;4994974;28;20231;-61
2021/12/09 03:04:25;;;;;;;63.53;33.15;;;;;;;;;;4995073;28;20191;-61
2021/12/09 03:06:54;;;;;;;61.17;32.63;;;;;;;;;;4995032;28;20200;-61
2021/12/09 03:09:22;;;;;;;63.00;32.88;;;;;;;;;;4994866;28;20207;-61
2021/12/09 03:11:55;;;;;;;58.42;33.10;;;;;;;;;;4999576;28;20224;-60
2021/12/09 03:14:23;;;;;;;64.25;33.97;;;;;;;;;;4996131;28;20219;-62
2021/12/09 03:16:50;;;;;;;61.65;32.65;;;;;;;;;;4995594;28;20216;-61
2021/12/09 03:19:18;;;;;;;57.13;29.95;;;;;;;;;;4994913;28;20199;-62
2021/12/09 03:21:46;;;;;;;62.45;31.88;;;;;;;;;;4994803;28;20234;-61
2021/12/09 03:24:15;;;;;;;63.88;33.92;;;;;;;;;;4995047;28;20211;-62
2021/12/09 03:26:46;;;;;;;64.60;32.45;;;;;;;;;;4994624;28;20656;-62
2021/12/09 03:29:15;;;;;;;62.00;33.38;;;;;;;;;;4994793;28;20198;-61
2021/12/09 03:31:44;;;;;;;61.78;31.52;;;;;;;;;;4994280;28;20227;-62
2021/12/09 03:34:12;;;;;;;57.97;31.90;;;;;;;;;;4994757;28;20224;-63
2021/12/09 03:36:39;;;;;;;57.05;30.88;;;;;;;;;;4994624;28;20211;-62
2021/12/09 03:39:08;;;;;;;56.13;31.75;;;;;;;;;;4994709;28;20204;-61
2021/12/09 03:41:35;;;;;;;61.25;31.88;;;;;;;;;;4994211;28;20262;-61
2021/12/09 03:44:03;;;;;;;59.38;32.35;;;;;;;;;;4994485;28;20231;-62
2021/12/09 03:46:32;;;;;;;55.40;31.38;;;;;;;;;;4994532;28;20204;-62
2021/12/09 03:48:59;;;;;;;67.05;32.00;;;;;;;;;;4994647;28;20204;-62
2021/12/09 03:51:26;;;;;;;56.88;31.30;;;;;;;;;;4994499;28;20238;-61
2021/12/09 03:53:54;;;;;;;54.92;30.95;;;;;;;;;;4994185;28;20211;-62
2021/12/09 03:56:21;;;;;;;62.92;30.90;;;;;;;;;;4994168;28;20211;-62
2021/12/09 03:58:49;;;;;;;56.20;28.23;;;;;;;;;;4993782;28;20204;-62
2021/12/09 04:01:16;;;;;;;54.05;31.25;;;;;;;;;;4993741;28;20570;-62
2021/12/09 04:03:45;;;;;;;48.65;28.83;;;;;;;;;;4994027;28;20204;-62
2021/12/09 04:09:02;;;;;;;50.97;29.02;;;;;;;;;;5111791;27;20562;-62
2021/12/09 04:11:30;;;;;;;54.80;28.08;;;;;;;;;;5111090;28;20223;-61
2021/12/09 04:13:57;;;;;;;54.00;30.10;;;;;;;;;;5111004;28;20199;-62
2021/12/09 04:16:24;;;;;;;60.78;31.38;;;;;;;;;;5110836;28;20701;-61
2021/12/09 04:18:52;;;;;;;59.75;31.48;;;;;;;;;;5111186;28;20200;-61
2021/12/09 04:21:19;;;;;;;56.97;33.05;;;;;;;;;;5098325;22;20225;-56
2021/12/09 04:23:46;;;;;;;60.00;32.08;;;;;;;;;;5050502;28;20209;-56
2021/12/09 04:26:15;;;;;;;50.55;29.35;;;;;;;;;;5050469;28;20216;-56
2021/12/09 04:28:43;;;;;;;50.72;29.35;;;;;;;;;;5050244;28;20221;-56
2021/12/09 04:31:10;;;;;;;56.67;30.70;;;;;;;;;;5050379;28;20320;-56
2021/12/09 04:33:38;;;;;;;59.60;30.35;;;;;;;;;;5050260;28;20219;-56
2021/12/09 04:36:05;;;;;;;56.78;28.45;;;;;;;;;;5050075;28;20217;-56
2021/12/09 04:38:33;;;;;;;60.72;28.98;;;;;;;;;;5050102;28;20213;-56
2021/12/09 04:41:00;;;;;;;51.80;29.80;;;;;;;;;;5049923;28;20586;-56
2021/12/09 04:43:29;;;;;;;52.80;30.00;;;;;;;;;;5050226;28;20212;-56
2021/12/09 04:45:59;;;;;;;52.97;30.52;;;;;;;;;;5050080;28;20206;-56
2021/12/09 04:48:26;;;;;;;58.28;31.15;;;;;;;;;;5049723;28;20206;-57
2021/12/09 04:50:54;;;;;;;58.67;30.58;;;;;;;;;;5049569;28;20256;-56
2021/12/09 04:53:21;;;;;;;58.40;32.22;;;;;;;;;;5049833;28;20212;-56
2021/12/09 04:55:48;;;;;;;65.75;33.15;;;;;;;;;;5049720;28;20206;-56
2021/12/09 04:58:16;;;;;;;59.17;32.28;;;;;;;;;;5049467;28;20205;-56
2021/12/09 05:00:44;;;;;;;64.78;33.92;;;;;;;;;;5049541;28;20222;-56
2021/12/09 05:03:13;;;;;;;62.78;33.03;;;;;;;;;;5049879;28;20212;-56
2021/12/09 05:05:42;;;;;;;72.03;34.70;;;;;;;;;;5050224;28;20313;-56
2021/12/09 05:08:11;;;;;;;57.97;30.13;;;;;;;;;;5049478;28;20709;-56
2021/12/09 05:10:52;;;;;;;64.38;32.50;;;;;;;;;;5050291;28;20226;-56
2021/12/09 05:13:20;;;;;;;60.70;31.17;;;;;;;;;;5049199;28;20558;-56
2021/12/09 05:15:49;;;;;;;59.03;31.88;;;;;;;;;;5049542;28;20210;-56
2021/12/09 05:18:16;;;;;;;59.20;28.42;;;;;;;;;;5047953;28;20220;-57
2021/12/09 05:20:44;;;;;;;56.33;31.15;;;;;;;;;;5035774;28;20230;-56
2021/12/09 05:23:12;;;;;;;59.90;32.25;;;;;;;;;;5036099;28;20209;-56
2021/12/09 05:25:39;;;;;;;70.85;32.28;;;;;;;;;;5036070;28;20206;-56
2021/12/09 05:28:08;;;;;;;65.20;32.85;;;;;;;;;;5035993;28;20233;-56
2021/12/09 05:32:07;;;;;;;67.10;33.40;;;;;;;;;;5036143;28;20234;-56
2021/12/09 05:33:27;;;;;;;71.78;33.00;;;;;;;;;;5035785;28;20288;-57
2021/12/09 05:35:55;;;;;;;68.65;31.55;;;;;;;;;;5035855;28;20230;-56
2021/12/09 05:38:23;;;;;;;80.43;35.67;;;;;;;;;;5035977;28;20198;-56
2021/12/09 05:40:50;;;;;;;61.28;32.90;;;;;;;;;;5035796;28;20222;-56
2021/12/09 05:43:18;;;;;;;71.15;33.50;;;;;;;;;;5035105;28;20225;-56
2021/12/09 05:45:47;;;;;;;63.65;34.30;;;;;;;;;;5035454;28;20685;-56
2021/12/09 05:48:15;;;;;;;61.13;32.78;;;;;;;;;;5035541;28;20214;-56
2021/12/09 05:50:44;;;;;;;63.70;32.70;;;;;;;;;;5035293;28;20230;-56
2021/12/09 05:53:11;;;;;;;68.57;33.83;;;;;;;;;;5035590;28;20213;-56
2021/12/09 05:55:43;;;;;;;60.03;33.53;;;;;;;;;;5035029;28;20202;-58
2021/12/09 05:58:10;;;;;;;55.65;31.58;;;;;;;;;;5035979;28;20203;-56
2021/12/09 06:00:38;;;;;;;64.75;34.42;;;;;;;;;;5035306;28;20221;-57
2021/12/09 06:03:05;;;;;;;70.13;35.45;;;;;;;;;;5035387;28;20206;-57
2021/12/09 06:05:35;;;;;;;59.25;31.65;;;;;;;;;;5035136;28;20555;-57
2021/12/09 06:08:04;;;;;;;71.63;32.60;;;;;;;;;;5034968;28;20222;-58
2021/12/09 06:10:33;;;;;;;58.10;29.90;;;;;;;;;;5034836;28;20226;-57
2021/12/09 06:13:00;;;;;;;63.47;33.95;;;;;;;;;;5034660;28;20301;-56
2021/12/09 06:15:28;;;;;;;68.07;34.55;;;;;;;;;;5034875;28;20206;-56
2021/12/09 06:17:55;;;;;;;70.93;35.33;;;;;;;;;;5034535;28;20202;-56
2021/12/09 06:20:23;;;;;;;65.90;33.22;;;;;;;;;;5034538;28;20230;-56
2021/12/09 06:22:50;;;;;;;70.45;35.05;;;;;;;;;;5034650;28;20191;-56
2021/12/09 06:25:19;;;;;;;75.25;33.88;;;;;;;;;;5034507;28;20670;-56
2021/12/09 06:27:48;;;;;;;69.72;35.35;;;;;;;;;;5034359;28;20219;-57
2021/12/09 06:30:16;;;;;;;75.13;38.10;;;;;;;;;;5034392;28;20245;-57
2021/12/09 06:32:43;;;;;;;68.53;34.70;;;;;;;;;;5034809;28;20199;-57
2021/12/09 06:35:11;;;;;;;62.38;33.25;;;;;;;;;;5034343;28;20206;-58
2021/12/09 06:37:43;;;;;;;65.82;33.40;;;;;;;;;;5034415;28;20201;-58
2021/12/09 06:40:11;;;;;;;84.72;35.45;;;;;;;;;;5034842;28;20224;-58
2021/12/09 06:42:40;;;;;;;67.95;34.60;;;;;;;;;;5034666;28;20601;-56
2021/12/09 06:45:08;;;;;;;64.97;33.35;;;;;;;;;;5034169;28;20198;-57
2021/12/09 06:47:35;;;;;;;64.40;35.20;;;;;;;;;;5034361;28;20214;-57
2021/12/09 06:50:02;;;;;;;67.50;36.17;;;;;;;;;;5033818;28;20207;-58
2021/12/09 06:52:30;;;;;;;69.07;34.25;;;;;;;;;;5034976;28;20213;-57
2021/12/09 06:54:57;;;;;;;63.05;32.35;;;;;;;;;;5034042;28;20211;-57
2021/12/09 06:57:24;;;;;;;64.95;33.50;;;;;;;;;;5033929;28;20685;-57
2021/12/09 06:59:53;;;;;;;60.35;32.28;;;;;;;;;;5033911;28;20202;-56
2021/12/09 07:02:20;;;;;;;65.00;33.70;;;;;;;;;;5033796;28;20240;-57
2021/12/09 07:04:47;;;;;;;62.92;33.75;;;;;;;;;;5033717;28;20222;-58
2021/12/09 07:07:15;;;;;;;64.70;32.97;;;;;;;;;;5033956;28;20202;-56
2021/12/09 07:09:42;;;;;;;60.55;32.95;;;;;;;;;;5034016;28;20233;-56
2021/12/09 07:12:10;;;;;;;70.47;36.70;;;;;;;;;;5033944;28;20272;-57
2021/12/09 07:14:39;;;;;;;67.28;33.65;;;;;;;;;;5033573;28;20202;-56
2021/12/09 07:17:08;;;;;;;72.60;34.45;;;;;;;;;;5033326;28;20202;-56
2021/12/09 07:19:35;;;;;;;75.53;35.28;;;;;;;;;;5033538;28;20218;-58
2021/12/09 07:22:03;;;;;;;72.47;34.58;;;;;;;;;;5033167;28;20780;-57
2021/12/09 07:24:31;;;;;;;66.80;32.53;;;;;;;;;;5033254;28;20203;-56
2021/12/09 07:26:58;;;;;;;71.65;32.50;;;;;;;;;;5033605;28;20214;-56
2021/12/09 07:29:25;;;;;;;70.47;35.25;;;;;;;;;;5033243;28;20230;-57
2021/12/09 07:31:53;;;;;;;67.45;36.40;;;;;;;;;;5033218;28;20226;-56
2021/12/09 07:34:22;;;;;;;74.72;33.92;;;;;;;;;;5033584;28;20206;-57
2021/12/09 07:36:49;;;;;;;65.78;33.15;;;;;;;;;;5033780;28;20213;-57
2021/12/09 07:39:16;;;;;;;64.75;33.15;;;;;;;;;;5033597;28;20199;-57
2021/12/09 07:41:44;;;;;;;70.53;35.15;;;;;;;;;;5032772;28;20635;-58
2021/12/09 07:44:13;;;;;;;67.32;32.78;;;;;;;;;;5033355;28;20209;-57
2021/12/09 07:46:42;;;;;;;65.95;33.33;;;;;;;;;;5033407;28;20202;-58
2021/12/09 07:49:10;;;;;;;73.13;33.25;;;;;;;;;;5032983;28;20309;-57
2021/12/09 07:51:39;;;;;;;76.18;33.15;;;;;;;;;;5033048;28;20229;-58
2021/12/09 07:54:06;;;;;;;69.95;31.35;;;;;;;;;;5032813;28;20217;-58
2021/12/09 07:56:33;;;;;;;61.78;32.85;;;;;;;;;;5033100;28;20210;-57
2021/12/09 07:59:01;;;;;;;68.25;31.77;;;;;;;;;;5032964;28;20651;-58
2021/12/09 08:01:29;;;;;;;66.93;31.73;;;;;;;;;;5033060;28;20222;-57
2021/12/09 08:03:56;;;;;;;71.18;34.45;;;;;;;;;;5033500;28;20225;-57
2021/12/09 08:06:24;;;;;;;65.50;31.85;;;;;;;;;;5033082;28;20209;-57
2021/12/09 08:08:52;;;;;;;63.38;33.92;;;;;;;;;;5032539;28;20218;-57
2021/12/09 08:11:20;;;;;;;60.65;32.67;;;;;;;;;;5032524;28;20222;-57
2021/12/09 08:13:47;;;;;;;61.88;32.17;;;;;;;;;;5033252;28;20206;-57
2021/12/09 08:16:16;;;;;;;67.47;33.58;;;;;;;;;;5033073;28;20741;-56
2021/12/09 08:18:55;;;;;;;62.80;31.08;;;;;;;;;;5033096;28;20233;-57
2021/12/09 08:21:23;;;;;;;64.35;33.58;;;;;;;;;;5032783;28;20230;-56
2021/12/09 08:23:51;;;;;;;74.05;33.55;;;;;;;;;;5033222;28;20202;-58
2021/12/09 08:26:20;;;;;;;59.38;33.05;;;;;;;;;;5033276;28;20256;-57
2021/12/09 08:28:47;;;;;;;65.25;33.28;;;;;;;;;;5033250;28;20225;-56
2021/12/09 08:31:14;;;;;;;56.90;29.10;;;2.60;99.90;;;;;;5033079;28;20218;-56
2021/12/09 08:33:42;;;;;;;61.08;31.25;;;2.70;99.90;;;;;;5033528;28;20206;-57
2021/12/09 08:36:09;;;;;;;59.33;32.65;;;2.80;99.90;;;;;;5032967;28;20202;-57
2021/12/09 08:38:37;;;;;;;59.90;30.08;;;2.80;99.90;;;;;;5032720;28;20202;-57
2021/12/09 08:41:04;;;;;;;63.22;34.15;;;2.90;99.90;;;;;;5032500;28;20604;-57
2021/12/09 08:43:32;;;;;;;66.70;32.90;;;2.90;99.90;;;;;;5032624;28;20289;-57
2021/12/09 08:46:00;;;;;;;58.90;33.20;;;2.90;99.90;;;;;;5032545;28;20206;-56
2021/12/09 08:48:27;;;;;;;64.18;31.48;;;3.00;99.90;;;;;;5032689;28;20229;-57
2021/12/09 08:50:55;;;;;;;65.00;32.45;;;3.00;99.90;;;;;;5032822;28;20222;-57
2021/12/09 08:53:24;;;;;;;62.90;31.80;;;3.10;99.90;;;;;;5032441;28;20202;-58
2021/12/09 08:55:52;;;;;;;58.50;32.22;;;3.10;99.90;;;;;;5036537;28;20210;-57
2021/12/09 08:58:19;;;;;;;62.17;32.22;;;3.10;99.90;;;;;;5036160;28;20213;-57
2021/12/09 09:00:51;;;;;;;62.83;32.53;;;3.20;99.90;;;;;;5036006;28;20771;-57
2021/12/09 09:03:19;;;;;;;58.72;31.73;;;3.20;99.90;;;;;;5036714;28;20186;-57
2021/12/09 09:05:46;;;;;;;58.78;32.65;;;3.20;99.90;;;;;;5036416;28;20199;-57
2021/12/09 09:08:14;;;;;;;59.90;32.33;;;3.10;99.90;;;;;;5036345;28;20210;-57
2021/12/09 09:10:43;;;;;;;66.80;32.83;;;3.10;99.90;;;;;;5036080;28;20223;-57
2021/12/09 09:13:11;;;;;;;67.18;32.22;;;3.20;99.90;;;;;;5037273;28;20623;-57
2021/12/09 09:15:38;;;;;;;55.63;32.17;;;3.20;99.90;;;;;;5037725;28;20198;-57
2021/12/09 09:18:08;;;;;;;53.00;30.77;;;3.30;99.90;;;;;;5037162;28;20203;-58
2021/12/09 09:20:39;;;;;;;57.53;30.10;;;3.40;99.90;;;;;;5036819;28;20234;-58
2021/12/09 09:23:08;;;;;;;47.47;30.00;;;3.40;99.90;;;;;;5036571;28;20619;-57
2021/12/09 09:25:36;;;;;;;56.22;30.40;;;3.50;99.90;;;;;;5036828;28;20275;-56
2021/12/09 09:28:03;;;;;;;50.00;30.90;;;3.50;99.90;;;;;;5037282;28;20234;-58
2021/12/09 09:30:35;;;;;;;60.15;31.00;;;3.50;99.90;;;;;;5036640;28;20227;-57
2021/12/09 09:33:05;;;;;;;61.72;29.30;;;3.60;99.90;;;;;;5036784;28;20193;-58
2021/12/09 09:35:34;;;;;;;54.53;30.38;;;3.70;99.90;;;;;;5037135;28;20209;-58
2021/12/09 09:38:01;;;;;;;53.72;28.90;;;3.70;99.90;;;;;;5037191;28;20207;-58
2021/12/09 09:40:38;;;;;;;60.10;31.60;;;3.80;99.90;;;;;;5037475;28;20229;-58
2021/12/09 09:43:15;;;;;;;54.80;31.13;;;3.80;99.90;;;;;;5036099;28;20260;-59
2021/12/09 09:45:42;;;;;;;56.95;30.67;;;3.90;99.90;;;;;;5036059;28;20182;-58
2021/12/09 09:48:12;;;;;;;61.83;33.10;;;3.90;99.90;;;;;;5035846;28;20202;-58
2021/12/09 09:50:41;;;;;;;55.00;29.48;;;4.00;99.90;;;;;;5035550;28;20233;-57
2021/12/09 09:53:09;;;;;;;50.33;31.15;;;4.10;99.90;;;;;;5035496;28;20229;-57
2021/12/09 09:55:36;;;;;;;55.53;33.42;;;4.10;99.90;;;;;;5035363;28;20221;-58
2021/12/09 09:58:04;;;;;;;54.47;30.60;;;4.10;99.90;;;;;;5035617;28;20198;-57
2021/12/09 10:00:32;;;;;;;64.38;36.75;;;4.20;99.90;;;;;;5035026;28;20214;-58
2021/12/09 10:03:03;;;;;;;57.35;35.35;;;4.20;99.90;;;;;;5034956;28;20769;-60
2021/12/09 10:05:36;;;;;;;72.57;39.13;;;4.30;99.90;;;;;;5035259;28;20564;-58
2021/12/09 10:08:06;;;;;;;61.45;34.35;;;4.30;99.90;;;;;;5034914;28;20639;-57
2021/12/09 10:10:33;;;;;;;57.72;32.47;;;4.40;99.90;;;;;;5035151;28;20252;-57
2021/12/09 10:13:05;;;;;;;59.58;33.13;;;4.40;99.90;;;;;;5036299;28;20213;-56
2021/12/09 10:15:37;;;;;;;82.68;42.15;;;4.40;99.90;;;;;;5035395;28;20190;-58
2021/12/09 10:18:05;;;;;;;76.45;45.60;;;4.40;99.90;;;;;;5036617;28;20602;-57
2021/12/09 10:23:32;;;;;;;70.20;39.85;;;4.40;99.90;;;;;;5070152;28;20217;-61
2021/12/09 10:26:22;;;;;;;71.57;39.70;;;4.40;99.90;;;;;;5057925;28;20185;-62
2021/12/09 10:28:54;;;;;;;55.83;34.17;;;4.40;99.90;;;;;;5057353;28;20210;-62
2021/12/09 10:31:28;;;;;;;56.35;30.30;;;4.40;99.90;;;;;;5055605;28;20651;-61
2021/12/09 10:34:11;;;;;;;76.50;44.30;;;4.50;99.90;;;;;;5056686;28;20190;-61
2021/12/09 10:37:00;;;;;;;105.82;58.97;;;4.50;99.90;;;;;;5055648;28;20193;-61
2021/12/09 10:39:40;;;;;;;178.75;105.82;;;4.50;99.90;;;;;;5055246;28;20186;-62
2021/12/09 10:42:11;;;;;;;114.97;67.80;;;4.50;99.90;;;;;;5054785;28;20237;-61
2021/12/09 10:44:42;;;;;;;52.72;34.50;;;4.60;99.90;;;;;;5054437;28;20197;-59
2021/12/09 10:47:14;;;;;;;46.50;27.98;;;4.60;99.90;;;;;;5060458;28;20197;-60
2021/12/09 10:49:50;;;;;;;50.28;28.15;;;4.70;99.90;;;;;;5064581;28;20260;-61
2021/12/09 10:52:23;;;;;;;47.53;28.30;;;4.70;99.90;;;;;;5063661;28;20221;-60
2021/12/09 10:54:52;;;;;;;49.50;26.85;;;4.70;99.90;;;;;;5063382;28;20208;-62
2021/12/09 10:57:33;;;;;;;46.15;25.90;;;4.70;99.90;;;;;;5054929;28;20331;-62
2021/12/09 11:00:20;;;;;;;46.17;25.13;;;4.70;99.90;;;;;;5055237;28;20201;-60
2021/12/09 11:03:06;;;;;;;48.17;25.30;;;4.70;99.90;;;;;;5055529;28;20252;-61
2021/12/09 11:05:36;;;;;;;43.28;27.92;;;4.70;99.90;;;;;;5055375;28;20300;-60
2021/12/09 11:08:24;;;;;;;51.25;27.92;;;4.70;99.90;;;;;;5054329;28;20202;-59
2021/12/09 11:11:00;;;;;;;42.40;28.10;;;4.80;99.90;;;;;;5059798;28;20206;-59
2021/12/09 11:13:40;;;;;;;43.78;27.50;;;4.90;99.90;;;;;;5062029;28;20213;-61
2021/12/09 11:16:08;;;;;;;41.13;26.25;;;5.00;99.90;;;;;;5054679;28;20186;-62
2021/12/09 11:18:39;;;;;;;46.20;25.75;;;5.10;99.90;;;;;;5054117;28;20198;-61
2021/12/09 11:21:11;;;;;;;46.88;28.13;;;5.20;99.90;;;;;;5053939;28;20225;-61
2021/12/09 11:23:45;;;;;;;43.72;26.27;;;5.20;99.90;;;;;;5054355;28;20190;-59
2021/12/09 11:29:18;;;;;;;37.88;24.40;;;5.40;99.90;;;;;;5051505;28;20218;-62
2021/12/09 11:31:55;;;;;;;45.10;24.85;;;5.50;99.90;;;;;;5053331;28;20248;-62
2021/12/09 11:34:27;;;;;;;43.25;27.60;;;5.50;99.90;;;;;;5053318;28;20535;-59
2021/12/09 11:36:59;;;;;;;37.33;25.98;;;5.40;99.90;;;;;;5053565;28;20229;-60
2021/12/09 11:39:33;;;;;;;42.30;26.52;;;5.40;99.90;;;;;;5054339;28;20634;-61
2021/12/09 11:42:33;;;;;;;49.97;28.92;;;5.40;99.90;;;;;;5054215;28;20297;-60
2021/12/09 11:45:00;;;;;;;45.75;25.48;;;5.40;99.90;;;;;;5020600;28;20564;-61
2021/12/09 11:47:28;;;;;;;39.42;26.25;;;5.50;99.90;;;;;;5053727;28;20209;-57
2021/12/09 11:49:55;;;;;;;40.15;26.38;;;5.50;99.90;;;;;;5053754;28;20228;-60
2021/12/09 11:52:24;;;;;;;42.40;26.13;;;5.50;99.90;;;;;;5053836;28;20221;-58
2021/12/09 11:54:58;;;;;;;53.38;28.63;;;5.50;99.90;;;;;;5053843;28;20221;-60
2021/12/09 11:57:37;;;;;;;44.50;26.75;;;5.50;99.90;;;;;;5054103;28;20185;-61
2021/12/09 12:11:57;;;;;;;36.58;22.70;;;5.90;99.90;;;;;;5053677;28;20216;-64
2021/12/09 12:14:42;;;;;;;36.70;23.70;;;5.80;99.90;;;;;;5053335;28;20210;-64
2021/12/09 12:17:21;;;;;;;38.42;23.15;;;5.70;99.90;;;;;;5053631;28;20186;-61
2021/12/09 12:20:25;;;;;;;39.60;23.58;;;5.70;99.90;;;;;;5055192;28;20240;-62
2021/12/09 12:26:11;;;;;;;34.00;20.95;;;5.90;99.90;;;;;;5054982;28;20196;-62
2021/12/09 12:28:55;;;;;;;34.72;21.35;;;6.10;99.90;;;;;;5053976;28;20733;-62
2021/12/09 12:34:53;;;;;;;35.25;20.83;;;6.30;99.90;;;;;;5057613;28;20661;-60
2021/12/09 12:37:44;;;;;;;28.80;19.65;;;6.40;99.90;;;;;;5058073;28;20301;-61
2021/12/09 12:40:16;;;;;;;29.75;20.50;;;6.40;99.90;;;;;;5058013;28;20664;-61
2021/12/09 12:42:50;;;;;;;36.45;20.38;;;6.40;99.90;;;;;;5058609;28;20229;-62
2021/12/09 12:45:47;;;;;;;34.03;20.48;;;6.50;99.90;;;;;;5060527;28;20196;-61
2021/12/09 12:49:01;;;;;;;33.88;20.08;;;6.50;99.90;;;;;;5058564;28;20514;-62
2021/12/09 12:51:34;;;;;;;32.50;18.75;;;6.50;99.90;;;;;;5058298;28;20288;-60
2021/12/09 12:54:23;;;;;;;29.60;18.52;;;6.50;99.90;;;;;;5059786;28;20190;-61
2021/12/09 12:56:54;;;;;;;30.95;18.83;;;6.40;99.90;;;;;;5058763;28;20209;-60
2021/12/09 12:59:28;;;;;;;32.05;20.05;;;6.40;99.90;;;;;;5058751;28;20186;-61
2021/12/09 13:05:19;;;;;;;28.60;18.60;;;6.50;99.90;;;;;;5057417;28;20193;-61
2021/12/09 13:08:20;;;;;;;24.38;17.55;;;6.50;99.80;;;;;;5057748;28;20233;-60
2021/12/09 13:11:02;;;;;;;29.63;17.77;;;6.50;99.70;;;;;;5058012;28;20281;-59
2021/12/09 13:13:41;;;;;;;23.92;15.57;;;6.50;99.60;;;;;;5058794;28;20190;-59
2021/12/09 13:16:15;;;;;;;21.83;16.75;;;6.60;99.60;;;;;;5058352;28;20219;-59
2021/12/09 13:18:59;;;;;;;22.42;15.13;;;6.50;99.40;;;;;;5058689;28;20708;-58
2021/12/09 13:21:34;;;;;;;28.95;16.20;;;6.50;99.40;;;;;;5058410;28;20724;-60
2021/12/09 13:24:31;;;;;;;22.77;15.45;;;6.50;99.40;;;;;;5057476;28;20260;-59
2021/12/09 13:27:40;;;;;;;21.35;14.40;;;6.60;99.40;;;;;;5057923;28;20190;-58
2021/12/09 13:30:28;;;;;;;21.38;14.43;;;6.70;99.30;;;;;;5051614;28;20701;-58
2021/12/09 13:36:01;;;;;;;22.52;13.32;;;6.80;98.80;;;;;;5058149;28;20197;-58
2021/12/09 13:47:03;;;;;;;19.23;11.77;;;6.60;98.50;;;;;;5058863;28;20826;-58
2021/12/09 13:49:48;;;;;;;19.88;10.82;;;6.50;98.60;;;;;;5058196;28;20192;-59
2021/12/09 13:55:07;;;;;;;22.17;11.95;;;6.30;98.80;;;;;;5058311;28;20237;-59
2021/12/09 13:57:39;;;;;;;22.70;14.63;;;6.30;98.90;;;;;;5058369;28;20193;-59
2021/12/09 14:00:14;;;;;;;19.33;11.65;;;6.20;99.10;;;;;;5058132;28;20638;-59
2021/12/09 14:02:41;;;;;;;20.30;12.20;;;6.20;99.20;;;;;;5057757;28;20232;-60
2021/12/09 14:05:14;;;;;;;23.23;13.02;;;6.20;99.30;;;;;;5056399;28;20212;-58
2021/12/09 14:07:49;;;;;;;20.83;12.98;;;6.10;99.10;;;;;;5056565;28;20194;-61
2021/12/09 14:10:22;;;;;;;20.00;12.30;;;6.00;99.40;;;;;;5055175;28;20201;-63
2021/12/09 14:12:58;;;;;;;23.52;13.32;;;6.00;99.70;;;;;;5055999;28;20231;-64
2021/12/09 14:15:36;;;;;;;22.65;12.90;;;6.00;99.90;;;;;;5058018;28;20212;-66
2021/12/09 14:18:09;;;;;;;18.00;13.52;;;6.00;99.90;;;;;;5057759;28;20192;-63
2021/12/09 14:20:36;;;;;;;23.52;12.73;;;6.00;99.90;;;;;;5055335;28;20204;-64
2021/12/09 14:23:04;;;;;;;23.77;14.18;;;6.00;99.90;;;;;;5055223;28;20234;-64
2021/12/09 14:25:34;;;;;;;21.00;12.45;;;6.00;99.90;;;;;;5055286;28;20574;-64
2021/12/09 14:28:05;;;;;;;18.27;12.60;;;5.90;99.90;;;;;;5055261;28;20205;-63
2021/12/09 14:30:32;;;;;;;19.42;11.75;;;5.90;99.90;;;;;;5058117;28;20322;-64
2021/12/09 14:33:00;;;;;;;18.50;11.27;;;5.80;99.90;;;;;;5059995;28;20225;-64
2021/12/09 14:35:31;;;;;;;18.65;12.05;;;5.80;99.90;;;;;;5062617;28;20212;-65
2021/12/09 14:37:59;;;;;;;19.25;11.90;;;5.80;99.90;;;;;;5062664;28;20216;-63